Time;durP1;ratioP1;P1;durP2;ratioP2;P2;SDS_P1;SDS_P2;PMS_P1;PMS_P2;Temp;Humidity;BMP_temperature;BMP_pressure;BME280_temperature;BME280_humidity;BME280_pressure;Samples;Min_cycle;Max_cycle;Signal;HPM_P1;HPM_P2
2023/07/22 00:00:14;;;;;;;;;;;;;;;14.40;90.29;101428.56;5059819;28;19995;-49
2023/07/22 00:02:39;;;;;;;;;;;;;;;14.40;89.36;101431.13;5062512;28;19920;-48
2023/07/22 00:05:05;;;;;;;;;;;;;;;14.39;88.90;101426.81;5059029;28;20290;-48
2023/07/22 00:07:30;;;;;;;;;;;;;;;14.39;88.99;101425.09;5057496;28;19964;-46
2023/07/22 00:09:55;;;;;;;;;;;;;;;14.38;89.16;101428.53;5059661;28;19972;-46
2023/07/22 00:12:25;;;;;;;;;;;;;;;14.37;89.67;101424.16;5056988;28;19920;-49
2023/07/22 00:14:50;;;;;;;;;;;;;;;14.37;88.27;101434.50;5060263;27;19920;-49
2023/07/22 00:17:15;;;;;;;;;;;;;;;14.34;89.89;101420.66;5059900;28;19925;-49
2023/07/22 00:19:41;;;;;;;;;;;;;;;14.35;89.84;101420.69;5060666;27;19964;-50
2023/07/22 00:22:06;;;;;;;;;;;;;;;14.37;90.89;101424.16;5061004;28;19924;-49
2023/07/22 00:24:31;;;;;;;;;;;;;;;14.40;90.01;101420.78;5058636;28;19924;-49
2023/07/22 00:26:57;;;;;;;;;;;;;;;14.40;90.57;101425.97;5044303;28;20344;-49
2023/07/22 00:29:22;;;;;;;;;;;;;;;14.43;90.76;101424.28;5064447;28;19928;-49
2023/07/22 00:31:47;;;;;;;;;;;;;;;14.45;94.26;101427.81;5066240;28;19916;-50
2023/07/22 00:34:13;;;;;;;;;;;;;;;14.42;94.48;101432.91;5048972;28;20375;-50
2023/07/22 00:36:38;;;;;;;;;;;;;;;14.36;98.35;101431.91;5060785;28;20363;-51
2023/07/22 00:39:05;;;;;;;;;;;;;;;14.27;99.00;101435.19;5061583;28;19955;-51
2023/07/22 00:41:30;;;;;;;;;;;;;;;14.17;100.00;101436.66;5063953;28;19968;-47
2023/07/22 00:43:55;;;;;;;;;;;;;;;14.11;100.00;101426.19;5067040;27;19928;-50
2023/07/22 00:46:21;;;;;;;;;;;;;;;14.07;100.00;101423.50;5063296;27;20314;-50
2023/07/22 00:48:47;;;;;;;;;;;;;;;14.00;100.00;101419.91;5060776;27;19925;-48
2023/07/22 00:51:12;;;;;;;;;;;;;;;13.97;100.00;101411.22;5064824;28;19921;-46
2023/07/22 00:53:38;;;;;;;;;;;;;;;13.92;100.00;101396.47;5063612;28;19944;-50
2023/07/22 00:56:04;;;;;;;;;;;;;;;13.89;100.00;101405.84;5064433;28;19916;-50
2023/07/22 00:58:29;;;;;;;;;;;;;;;13.84;100.00;101403.19;5062735;28;19916;-47
2023/07/22 01:00:55;;;;;;;;;;;;;;;13.82;100.00;101404.84;5058068;28;20335;-60
2023/07/22 01:03:20;;;;;;;;;;;;;;;13.79;100.00;101407.34;5057705;28;20015;-60
2023/07/22 01:05:47;;;;;;;;;;;;;;;13.77;100.00;101409.03;5037839;28;19968;-48
2023/07/22 01:08:12;;;;;;;;;;;;;;;13.76;100.00;101411.56;5060757;28;19920;-50
2023/07/22 01:10:38;;;;;;;;;;;;;;;13.75;100.00;101413.28;5057044;28;20350;-50
2023/07/22 01:13:04;;;;;;;;;;;;;;;13.73;100.00;101402.03;5053202;27;19939;-50
2023/07/22 01:15:29;;;;;;;;;;;;;;;13.73;100.00;101406.34;5057858;28;19929;-49
2023/07/22 01:17:56;;;;;;;;;;;;;;;13.71;100.00;101403.72;5063641;27;20007;-61
2023/07/22 01:20:22;;;;;;;;;;;;;;;13.69;100.00;101400.22;5056064;28;19921;-61
2023/07/22 01:22:54;;;;;;;;;;;;;;;13.67;100.00;101395.03;5052586;28;20015;-61
2023/07/22 01:25:22;;;;;;;;;;;;;;;13.68;100.00;101398.47;5051648;28;19917;-61
2023/07/22 01:27:49;;;;;;;;;;;;;;;13.67;100.00;101396.72;5055563;28;20302;-60
2023/07/22 01:30:14;;;;;;;;;;;;;;;13.66;100.00;101388.09;5058672;28;19927;-61
2023/07/22 01:32:39;;;;;;;;;;;;;;;13.65;100.00;101385.47;5057863;28;19928;-61
2023/07/22 01:35:05;;;;;;;;;;;;;;;13.64;100.00;101394.06;5061840;28;19921;-61
2023/07/22 01:37:31;;;;;;;;;;;;;;;13.61;100.00;101388.84;5057770;28;19920;-61
2023/07/22 01:39:57;;;;;;;;;;;;;;;13.59;100.00;101383.63;5058508;28;19925;-60
2023/07/22 01:42:23;;;;;;;;;;;;;;;13.57;100.00;101385.28;5039089;28;19946;-62
2023/07/22 01:44:48;;;;;;;;;;;;;;;13.55;100.00;101383.50;5057238;28;19970;-62
2023/07/22 01:47:13;;;;;;;;;;;;;;;13.53;100.00;101387.75;5057905;28;19964;-62
2023/07/22 01:49:38;;;;;;;;;;;;;;;13.51;100.00;101386.84;5057897;28;19921;-61
2023/07/22 01:52:05;;;;;;;;;;;;;;;13.47;100.00;101382.44;5061788;28;19928;-62
2023/07/22 01:54:30;;;;;;;;;;;;;;;13.45;100.00;101381.53;5058182;28;19928;-61
2023/07/22 01:56:55;;;;;;;;;;;;;;;13.43;100.00;101375.47;5060812;27;19921;-62
2023/07/22 01:59:20;;;;;;;;;;;;;;;13.41;100.00;101384.06;5058543;28;19935;-62
2023/07/22 02:01:47;;;;;;;;;;;;;;;13.41;100.00;101381.47;5052168;28;20008;-61
2023/07/22 02:04:12;;;;;;;;;;;;;;;13.44;100.00;101379.78;5056569;28;19933;-63
2023/07/22 02:06:38;;;;;;;;;;;;;;;13.41;100.00;101378.91;5055951;28;20520;-62
2023/07/22 02:09:08;;;;;;;;;;;;;;;13.39;100.00;101383.13;5054738;27;19952;-61
2023/07/22 02:11:36;;;;;;;;;;;;;;;13.39;100.00;101382.25;5055732;28;20007;-61
2023/07/22 02:14:01;;;;;;;;;;;;;;;13.35;100.00;101373.56;5056103;27;19929;-62
2023/07/22 02:16:26;;;;;;;;;;;;;;;13.35;100.00;101381.31;5056537;28;20275;-61
2023/07/22 02:18:52;;;;;;;;;;;;;;;13.32;100.00;101376.06;5062899;28;20290;-61
2023/07/22 02:21:17;;;;;;;;;;;;;;;13.31;100.00;101370.88;5063703;28;19960;-62
2023/07/22 02:23:42;;;;;;;;;;;;;;;13.30;100.00;101372.59;5061578;28;19964;-62
2023/07/22 02:26:08;;;;;;;;;;;;;;;13.30;100.00;101367.41;5058009;28;19973;-61
2023/07/22 02:28:33;;;;;;;;;;;;;;;13.30;100.00;101364.84;5061183;28;19931;-61
2023/07/22 02:31:02;;;;;;;;;;;;;;;13.28;100.00;101369.06;5062128;28;19917;-61
2023/07/22 02:33:27;;;;;;;;;;;;;;;13.25;100.00;101358.69;5061422;28;19967;-61
2023/07/22 02:35:52;;;;;;;;;;;;;;;13.21;100.00;101356.84;5064348;28;19964;-62
2023/07/22 02:38:18;;;;;;;;;;;;;;;13.21;100.00;101358.56;5065940;28;20396;-60
2023/07/22 02:40:43;;;;;;;;;;;;;;;13.18;100.00;101353.28;5068445;27;19916;-62
2023/07/22 02:43:08;;;;;;;;;;;;;;;13.17;100.00;101365.34;5066897;28;19920;-61
2023/07/22 02:45:34;;;;;;;;;;;;;;;13.12;100.00;101354.88;5057702;27;19921;-61
2023/07/22 02:47:59;;;;;;;;;;;;;;;13.08;100.00;101353.03;5058277;28;19924;-61
2023/07/22 02:50:25;;;;;;;;;;;;;;;13.05;100.00;101362.44;5060308;28;19920;-62
2023/07/22 02:52:50;;;;;;;;;;;;;;;13.00;100.00;101357.16;5065474;28;20369;-62
2023/07/22 02:55:18;;;;;;;;;;;;;;;12.96;100.00;101360.47;5063772;28;19924;-61
2023/07/22 02:57:44;;;;;;;;;;;;;;;12.94;100.00;101359.56;5065489;28;19912;-61
2023/07/22 03:00:12;;;;;;;;;;;;;;;12.88;100.00;101362.88;5066693;27;19929;-62
2023/07/22 03:02:37;;;;;;;;;;;;;;;12.82;100.00;101357.53;5058257;27;19927;-61
2023/07/22 03:05:07;;;;;;;;;;;;;;;12.79;100.00;101360.03;5058826;28;19912;-62
2023/07/22 03:07:32;;;;;;;;;;;;;;;12.76;100.00;101375.44;5060309;28;19917;-61
2023/07/22 03:09:59;;;;;;;;;;;;;;;12.69;100.00;101368.38;5043290;28;20023;-62
2023/07/22 03:12:24;;;;;;;;;;;;;;;12.68;100.00;101370.88;5059392;28;20007;-62
2023/07/22 03:14:49;;;;;;;;;;;;;;;12.63;100.00;101367.31;5063421;28;20048;-61
2023/07/22 03:17:16;;;;;;;;;;;;;;;12.59;100.00;101374.09;5055072;27;20330;-63
2023/07/22 03:19:41;;;;;;;;;;;;;;;12.56;100.00;101376.59;5056088;28;20015;-62
2023/07/22 03:22:07;;;;;;;;;;;;;;;12.53;100.00;101372.22;5057387;28;20445;-62
2023/07/22 03:24:32;;;;;;;;;;;;;;;12.51;100.00;101380.75;5056331;28;19933;-62
2023/07/22 03:26:57;;;;;;;;;;;;;;;12.50;100.00;101387.63;5043592;28;20367;-62
2023/07/22 03:29:24;;;;;;;;;;;;;;;12.50;100.00;101382.47;5058542;28;20349;-62
2023/07/22 03:31:49;;;;;;;;;;;;;;;12.48;100.00;101381.53;5061885;28;19921;-62
2023/07/22 03:34:14;;;;;;;;;;;;;;;12.48;100.00;101378.06;5059733;28;20023;-47
2023/07/22 03:36:40;;;;;;;;;;;;;;;12.49;100.00;101378.09;5056735;28;19925;-47
2023/07/22 03:39:05;;;;;;;;;;;;;;;12.47;100.00;101376.31;5060025;28;19924;-47
2023/07/22 03:41:31;;;;;;;;;;;;;;;12.46;100.00;101379.75;5055058;28;20283;-47
2023/07/22 03:43:56;;;;;;;;;;;;;;;12.46;100.00;101378.03;5061631;28;19972;-46
2023/07/22 03:46:21;;;;;;;;;;;;;;;12.47;100.00;101381.47;5060792;28;19960;-47
2023/07/22 03:48:46;;;;;;;;;;;;;;;12.45;100.00;101378.88;5040036;28;19921;-46
2023/07/22 03:51:12;;;;;;;;;;;;;;;12.43;100.00;101377.06;5059099;28;19929;-50
2023/07/22 03:53:37;;;;;;;;;;;;;;;12.43;100.00;101379.63;5055124;28;19925;-50
2023/07/22 03:56:02;;;;;;;;;;;;;;;12.44;100.00;101377.13;5060209;28;20370;-50
2023/07/22 03:58:27;;;;;;;;;;;;;;;12.44;100.00;101378.84;5059868;28;19981;-50
2023/07/22 04:00:53;;;;;;;;;;;;;;;12.42;100.00;101381.34;5059467;28;19921;-47
2023/07/22 04:03:18;;;;;;;;;;;;;;;12.42;100.00;101383.06;5059020;28;19972;-47
2023/07/22 04:05:43;;;;;;;;;;;;;;;12.42;100.00;101381.34;5055278;28;19920;-50
2023/07/22 04:08:08;;;;;;;;;;;;;;;12.45;100.00;101380.56;5058860;28;20437;-48
2023/07/22 04:10:34;;;;;;;;;;;;;;;12.45;100.00;101384.03;5058132;28;19920;-46
2023/07/22 04:12:59;;;;;;;;;;;;;;;12.46;100.00;101372.88;5054627;28;19921;-47
2023/07/22 04:15:24;;;;;;;;;;;;;;;12.46;100.00;101379.75;4993568;28;1807855;-49
2023/07/22 04:17:50;;;;;;;;;;;;;;;12.46;100.00;101375.47;5060160;28;19921;-47
2023/07/22 04:20:15;;;;;;;;;;;;;;;12.47;100.00;101381.47;5043996;28;19929;-47
2023/07/22 04:22:41;;;;;;;;;;;;;;;12.46;100.00;101387.47;5056466;28;19921;-47
2023/07/22 04:25:06;;;;;;;;;;;;;;;12.46;100.00;101387.47;5061920;28;19939;-47
2023/07/22 04:27:31;;;;;;;;;;;;;;;12.45;100.00;101380.56;5066596;28;20003;-47
2023/07/22 04:29:57;;;;;;;;;;;;;;;12.46;100.00;101390.06;5063755;28;19952;-46
2023/07/22 04:32:22;;;;;;;;;;;;;;;12.46;100.00;101390.06;5067741;27;19920;-47
2023/07/22 04:34:48;;;;;;;;;;;;;;;12.47;100.00;101390.09;5063750;27;20003;-51
2023/07/22 04:37:13;;;;;;;;;;;;;;;12.51;100.00;101388.50;5063243;28;20354;-48
2023/07/22 04:39:38;;;;;;;;;;;;;;;12.51;100.00;101391.06;5044307;28;19951;-46
2023/07/22 04:42:04;;;;;;;;;;;;;;;12.55;100.00;101392.88;5060061;28;19927;-51
2023/07/22 04:44:29;;;;;;;;;;;;;;;12.66;100.00;101395.78;5061864;28;19924;-46
2023/07/22 04:46:55;;;;;;;;;;;;;;;12.90;100.00;101396.44;5056540;28;19917;-47
2023/07/22 04:49:20;;;;;;;;;;;;;;;13.11;100.00;101393.56;5064091;28;19916;-47
2023/07/22 04:51:46;;;;;;;;;;;;;;;13.17;100.00;101385.13;5058578;28;19975;-48
2023/07/22 04:54:11;;;;;;;;;;;;;;;13.23;100.00;101387.91;5059594;28;19917;-47
2023/07/22 04:56:37;;;;;;;;;;;;;;;13.33;100.00;101390.72;5063353;27;19912;-46
2023/07/22 04:59:03;;;;;;;;;;;;;;;13.38;100.00;101394.31;5067779;28;20052;-62
2023/07/22 05:01:28;;;;;;;;;;;;;;;13.39;100.00;101390.00;5060380;27;19917;-61
2023/07/22 05:03:55;;;;;;;;;;;;;;;13.37;100.00;101391.69;5064026;27;20346;-61
2023/07/22 05:06:20;;;;;;;;;;;;;;;13.33;100.00;101395.88;5070899;28;19920;-61
2023/07/22 05:08:45;;;;;;;;;;;;;;;13.33;100.00;101395.88;5066075;28;20263;-62
2023/07/22 05:11:10;;;;;;;;;;;;;;;13.33;100.00;101401.06;5063317;28;20528;-61
2023/07/22 05:13:36;;;;;;;;;;;;;;;13.37;100.00;101402.03;5064489;28;19927;-61
2023/07/22 05:16:01;;;;;;;;;;;;;;;13.38;100.00;101401.19;5044038;27;19931;-62
2023/07/22 05:18:26;;;;;;;;;;;;;;;13.38;100.00;101394.31;5046724;28;19965;-50
2023/07/22 05:20:51;;;;;;;;;;;;;;;13.40;100.00;101402.94;5040136;28;19921;-49
2023/07/22 05:23:17;;;;;;;;;;;;;;;13.41;100.00;101399.56;5039296;28;20309;-47
2023/07/22 05:25:42;;;;;;;;;;;;;;;13.46;100.00;101396.19;5050153;27;19936;-47
2023/07/22 05:28:07;;;;;;;;;;;;;;;13.49;100.00;101397.16;5035729;28;19936;-49
2023/07/22 05:30:32;;;;;;;;;;;;;;;13.61;100.00;101399.16;5037010;28;20032;-46
2023/07/22 05:32:58;;;;;;;;;;;;;;;13.72;100.00;101402.88;5041781;28;19964;-47
2023/07/22 05:35:23;;;;;;;;;;;;;;;13.75;100.00;101397.78;5040275;28;19921;-49
2023/07/22 05:37:49;;;;;;;;;;;;;;;13.96;100.00;101397.41;5042946;28;19921;-47
2023/07/22 05:40:14;;;;;;;;;;;;;;;14.18;100.00;101404.78;5035530;28;19921;-46
2023/07/22 05:42:41;;;;;;;;;;;;;;;14.66;100.00;101401.50;5038426;28;19921;-62
2023/07/22 05:45:06;;;;;;;;;;;;;;;15.18;100.00;101401.63;5033927;28;20385;-62
2023/07/22 05:47:31;;;;;;;;;;;;;;;15.43;97.87;101406.41;5033701;28;19921;-62
2023/07/22 05:49:57;;;;;;;;;;;;;;;15.39;96.23;101406.31;5039056;28;19928;-61
2023/07/22 05:52:22;;;;;;;;;;;;;;;15.26;97.15;101407.81;5042299;28;20327;-61
2023/07/22 05:54:47;;;;;;;;;;;;;;;15.44;97.20;101397.75;5041171;28;19928;-61
2023/07/22 05:57:12;;;;;;;;;;;;;;;15.78;96.08;101394.03;5041968;28;20031;-62
2023/07/22 05:59:39;;;;;;;;;;;;;;;16.22;95.71;101386.00;5041537;28;19921;-63
2023/07/22 06:02:05;;;;;;;;;;;;;;;16.70;93.69;101386.59;5039956;28;20785;-62
2023/07/22 06:04:30;;;;;;;;;;;;;;;17.12;90.39;101391.41;5042897;28;20047;-62
2023/07/22 06:06:55;;;;;;;;;;;;;;;17.52;88.71;101387.41;5034419;28;19925;-62
2023/07/22 06:09:21;;;;;;;;;;;;;;;17.61;90.76;101387.47;5042825;28;20394;-62
2023/07/22 06:11:46;;;;;;;;;;;;;;;17.58;90.13;101387.44;5035780;28;19969;-50
2023/07/22 06:14:11;;;;;;;;;;;;;;;17.84;90.28;101386.81;5037601;28;20292;-48
2023/07/22 06:16:37;;;;;;;;;;;;;;;17.99;87.90;101383.44;5061946;28;20024;-50
2023/07/22 06:19:03;;;;;;;;;;;;;;;17.97;86.99;101385.16;5043785;28;19921;-50
2023/07/22 06:21:29;;;;;;;;;;;;;;;18.06;88.60;101388.66;5040812;28;19917;-51
2023/07/22 06:23:54;;;;;;;;;;;;;;;18.16;85.94;101387.00;5044789;28;19972;-50
2023/07/22 06:26:19;;;;;;;;;;;;;;;18.21;88.33;101390.50;5038721;28;20367;-50
2023/07/22 06:28:44;;;;;;;;;;;;;;;18.30;86.47;101397.47;5042475;28;19921;-50
2023/07/22 06:31:10;;;;;;;;;;;;;;;18.16;84.33;101385.25;5038046;28;19929;-49
2023/07/22 06:33:36;;;;;;;;;;;;;;;17.89;85.89;101383.34;5058851;28;19925;-50
2023/07/22 06:36:01;;;;;;;;;;;;;;;17.60;86.40;101380.56;5034373;28;19927;-50
2023/07/22 06:38:26;;;;;;;;;;;;;;;17.36;86.44;101375.16;5035036;28;19956;-50
2023/07/22 06:40:54;;;;;;;;;;;;;;;17.19;88.55;101375.00;5038190;28;19917;-50
2023/07/22 06:43:20;;;;;;;;;;;;;;;17.13;89.09;101369.75;5042416;28;19924;-49
2023/07/22 06:45:45;;;;;;;;;;;;;;;16.96;89.40;101371.31;5037977;28;20347;-50
2023/07/22 06:48:10;;;;;;;;;;;;;;;16.95;89.42;101370.44;5039268;28;20011;-48
2023/07/22 06:50:35;;;;;;;;;;;;;;;16.96;90.96;101368.72;5043843;28;19921;-49
2023/07/22 06:53:01;;;;;;;;;;;;;;;17.25;89.87;101376.78;5046255;28;19921;-48
2023/07/22 06:55:26;;;;;;;;;;;;;;;17.47;89.71;101367.41;5047081;28;19951;-48
2023/07/22 06:57:51;;;;;;;;;;;;;;;17.87;89.68;101359.06;5045373;27;20379;-50
2023/07/22 07:00:17;;;;;;;;;;;;;;;18.43;86.00;101363.69;5048279;28;19917;-50
2023/07/22 07:02:42;;;;;;;;;;;;;;;18.43;84.40;101366.28;5047229;28;19917;-46
2023/07/22 07:05:07;;;;;;;;;;;;;;;18.37;85.44;101366.25;5045589;28;19917;-48
2023/07/22 07:07:32;;;;;;;;;;;;;;;18.28;85.71;101366.22;5045586;28;19924;-50
2023/07/22 07:09:58;;;;;;;;;;;;;;;18.37;86.63;101366.25;5042713;28;20000;-47
2023/07/22 07:12:23;;;;;;;;;;;;;;;18.35;84.97;101367.13;5043786;28;19924;-50
2023/07/22 07:14:51;;;;;;;;;;;;;;;18.20;85.31;101368.81;5043405;28;20067;-49
2023/07/22 07:17:17;;;;;;;;;;;;;;;18.06;84.80;101370.44;5049825;28;19946;-48
2023/07/22 07:19:42;;;;;;;;;;;;;;;17.95;86.58;101370.38;5062884;28;19929;-50
2023/07/22 07:22:07;;;;;;;;;;;;;;;17.80;87.45;101369.44;5054332;27;19920;-47
2023/07/22 07:24:33;;;;;;;;;;;;;;;17.75;87.41;101373.72;5058748;28;19967;-48
2023/07/22 07:26:58;;;;;;;;;;;;;;;17.69;87.91;101370.19;5062383;28;20387;-48
2023/07/22 07:29:23;;;;;;;;;;;;;;;17.68;87.83;101370.19;5065913;28;19920;-46
2023/07/22 07:31:48;;;;;;;;;;;;;;;17.65;88.11;101370.16;5053593;27;20015;-48
2023/07/22 07:34:14;;;;;;;;;;;;;;;17.59;88.10;101362.31;5059384;28;19921;-47
2023/07/22 07:36:39;;;;;;;;;;;;;;;17.58;88.74;101365.78;5056319;28;20366;-49
2023/07/22 07:39:04;;;;;;;;;;;;;;;17.60;90.74;101364.94;5055320;28;19924;-48
2023/07/22 07:41:29;;;;;;;;;;;;;;;17.67;88.83;101371.94;5064032;28;19924;-50
2023/07/22 07:43:55;;;;;;;;;;;;;;;17.63;88.01;101370.16;5060855;28;20455;-52
2023/07/22 07:46:24;;;;;;;;;;;;;;;17.54;88.95;101364.91;5065754;27;19920;-50
2023/07/22 07:48:49;;;;;;;;;;;;;;;17.53;88.38;101364.88;5059740;27;20007;-48
2023/07/22 07:51:15;;;;;;;;;;;;;;;17.59;87.79;101364.91;5061078;28;20006;-50
2023/07/22 07:53:41;;;;;;;;;;;;;;;17.58;89.27;101366.66;5055993;28;20007;-51
2023/07/22 07:56:07;;;;;;;;;;;;;;;17.78;88.05;101368.56;5060986;28;19924;-48
2023/07/22 07:58:32;;;;;;;;;;;;;;;17.91;88.01;101367.78;5054753;28;20012;-48
2023/07/22 08:00:57;;;;;;;;;;;;;;;18.09;87.76;101365.28;5054815;28;20317;-49
2023/07/22 08:03:23;;;;;;;;;;;;;;;18.27;86.89;101364.50;5042777;28;19925;-49
2023/07/22 08:05:48;;;;;;;;;;;;;;;18.45;86.18;101372.38;5059764;28;19923;-50
2023/07/22 08:08:14;;;;;;;;;;;;;;;18.60;85.21;101368.94;5057992;28;19932;-46
2023/07/22 08:10:39;;;;;;;;;;;;;;;18.68;85.11;101367.25;5041224;28;19925;-49
2023/07/22 08:13:04;;;;;;;;;;;;;;;18.75;84.45;101369.03;5055768;28;20024;-50
2023/07/22 08:15:30;;;;;;;;;;;;;;;18.85;84.62;101375.13;5057386;28;19921;-50
2023/07/22 08:17:55;;;;;;;;;;;;;;;18.94;82.03;101380.38;5057880;28;19989;-61
2023/07/22 08:20:21;;;;;;;;;;;;;;;18.91;80.91;101380.34;5056368;28;19951;-60
2023/07/22 08:22:46;;;;;;;;;;;;;;;18.89;81.36;101379.47;5048719;28;20586;-60
2023/07/22 08:25:12;;;;;;;;;;;;;;;18.91;80.99;101377.75;5058635;28;20255;-60
2023/07/22 08:27:37;;;;;;;;;;;;;;;18.91;81.26;101380.34;5062525;28;19927;-60
2023/07/22 08:30:02;;;;;;;;;;;;;;;18.82;79.93;101377.75;5043323;27;19936;-60
2023/07/22 08:32:27;;;;;;;;;;;;;;;18.73;80.75;101383.78;5059397;28;19925;-60
2023/07/22 08:34:53;;;;;;;;;;;;;;;18.83;81.74;101379.47;5057669;28;19920;-60
2023/07/22 08:37:18;;;;;;;;;;;;;;;19.14;82.65;101387.34;5062094;28;20319;-60
2023/07/22 08:39:43;;;;;;;;;;;;;;;19.56;78.99;101379.53;5064331;27;19921;-60
2023/07/22 08:42:09;;;;;;;;;;;;;;;19.87;78.43;101373.44;5055753;28;20392;-60
2023/07/22 08:44:37;;;;;;;;;;;;;;;20.16;72.95;101379.44;5058876;28;19932;-60
2023/07/22 08:47:05;;;;;;;;;;;;;;;20.36;75.24;101380.22;5038872;28;19916;-61
2023/07/22 08:49:31;;;;;;;;;;;;;;;20.65;74.80;101374.03;5056120;28;19923;-60
2023/07/22 08:51:57;;;;;;;;;;;;;;;20.83;72.99;101376.56;5058243;28;19920;-60
2023/07/22 08:54:23;;;;;;;;;;;;;;;20.93;69.57;101377.38;5058435;28;19950;-60
2023/07/22 08:56:49;;;;;;;;;;;;;;;20.93;69.49;101377.38;5059400;28;19927;-59
2023/07/22 08:59:15;;;;;;;;;;;;;;;20.91;70.90;101376.50;5057023;28;20471;-61
2023/07/22 09:01:40;;;;;;;;;;;;;;;20.86;69.37;101381.75;5063707;28;19924;-59
2023/07/22 09:04:06;;;;;;;;;;;;;;;20.85;69.92;101382.63;5062589;28;19933;-60
2023/07/22 09:06:31;;;;;;;;;;;;;;;20.92;72.53;101377.34;5066255;28;19948;-58
2023/07/22 09:08:56;;;;;;;;;;;;;;;20.93;68.50;101376.47;5055708;28;19993;-60
2023/07/22 09:11:22;;;;;;;;;;;;;;;20.83;71.42;101378.31;5058323;28;19917;-60
2023/07/22 09:13:47;;;;;;;;;;;;;;;20.65;66.84;101370.56;5062634;28;19974;-62
2023/07/22 09:16:13;;;;;;;;;;;;;;;20.53;68.67;101369.75;5056861;28;19929;-61
2023/07/22 09:18:38;;;;;;;;;;;;;;;20.50;68.59;101374.09;5060961;28;19920;-60
2023/07/22 09:21:04;;;;;;;;;;;;;;;20.53;67.38;101368.88;5059304;27;19920;-61
2023/07/22 09:23:33;;;;;;;;;;;;;;;20.61;69.48;101367.94;5065647;27;20336;-60
2023/07/22 09:26:08;;;;;;;;;;;;;;;20.73;67.75;101374.00;5064331;28;19917;-61
2023/07/22 09:28:47;;;;;;;;;;;;;;;20.71;69.70;101367.91;5061267;28;19924;-62
2023/07/22 09:31:12;;;;;;;;;;;;;;;20.64;68.86;101372.31;5055812;28;19927;-60
2023/07/22 09:33:38;;;;;;;;;;;;;;;20.59;67.89;101369.72;5061223;28;19921;-59
2023/07/22 09:36:04;;;;;;;;;;;;;;;20.46;69.08;101368.03;5063984;27;19929;-61
2023/07/22 09:38:29;;;;;;;;;;;;;;;20.31;69.49;101374.16;5056624;28;20024;-59
2023/07/22 09:40:54;;;;;;;;;;;;;;;20.25;69.03;101363.72;5060693;27;19969;-59
2023/07/22 09:43:22;;;;;;;;;;;;;;;20.18;69.54;101358.53;5054431;28;19924;-58
2023/07/22 09:45:48;;;;;;;;;;;;;;;20.09;68.24;101369.91;5050564;28;20371;-58
2023/07/22 09:48:13;;;;;;;;;;;;;;;20.03;68.27;101369.91;5056014;28;20049;-59
2023/07/22 09:50:38;;;;;;;;;;;;;;;20.03;68.68;101362.09;5055990;28;20377;-59
2023/07/22 09:53:04;;;;;;;;;;;;;;;20.01;68.45;101354.25;5054075;28;19920;-58
2023/07/22 09:55:30;;;;;;;;;;;;;;;20.11;70.33;101362.91;5034489;28;20058;-58
2023/07/22 09:57:57;;;;;;;;;;;;;;;20.32;67.67;101357.63;5053717;28;20371;-57
2023/07/22 10:00:42;;;;;;;;;;;;;;;20.47;68.88;101348.88;5058882;28;20426;-57
2023/07/22 10:03:10;;;;;;;;;;;;;;;20.44;67.47;101346.22;5056692;28;19924;-58
2023/07/22 10:05:36;;;;;;;;;;;;;;;20.48;67.31;101347.13;5058512;27;19947;-59
2023/07/22 10:08:02;;;;;;;;;;;;;;;20.38;67.79;101348.00;5058945;28;20362;-60
2023/07/22 10:10:34;;;;;;;;;;;;;;;20.23;69.08;101349.81;5052679;28;20390;-60
2023/07/22 10:13:00;;;;;;;;;;;;;;;20.24;69.44;101356.78;5060585;28;19920;-59
2023/07/22 10:15:26;;;;;;;;;;;;;;;20.28;69.11;101361.13;5055483;28;20294;-60
2023/07/22 10:17:53;;;;;;;;;;;;;;;20.34;68.65;101350.66;5057407;28;19931;-60
2023/07/22 10:20:19;;;;;;;;;;;;;;;20.42;67.42;101357.56;5059087;28;19925;-59
2023/07/22 10:22:45;;;;;;;;;;;;;;;20.62;65.45;101360.97;5058059;28;19921;-59
2023/07/22 10:25:12;;;;;;;;;;;;;;;20.73;65.04;101364.41;5062794;28;19916;-59
2023/07/22 10:27:39;;;;;;;;;;;;;;;20.78;65.46;101357.41;5065948;28;20003;-58
2023/07/22 10:30:05;;;;;;;;;;;;;;;20.93;63.27;101359.06;5066752;28;20003;-58
2023/07/22 10:32:35;;;;;;;;;;;;;;;21.12;63.98;101352.84;5037604;28;20361;-60
2023/07/22 10:35:00;;;;;;;;;;;;;;;21.21;62.39;101359.72;5063373;28;19917;-61
2023/07/22 10:37:29;;;;;;;;;;;;;;;21.12;65.34;101352.84;5059556;28;19921;-61
2023/07/22 10:39:58;;;;;;;;;;;;;;;21.26;65.60;101352.72;5061877;28;19916;-61
2023/07/22 10:42:24;;;;;;;;;;;;;;;21.34;63.36;101350.91;5065587;28;20294;-61
2023/07/22 10:44:50;;;;;;;;;;;;;;;21.38;62.49;101347.41;5062507;28;19923;-58
2023/07/22 10:47:30;;;;;;;;;;;;;;;21.25;61.00;101339.66;5058222;28;19921;-59
2023/07/22 10:50:04;;;;;;;;;;;;;;;21.23;60.90;101338.78;5037863;28;20303;-59
2023/07/22 10:52:43;;;;;;;;;;;;;;;21.21;62.03;101338.78;5057046;28;19969;-59
2023/07/22 10:55:18;;;;;;;;;;;;;;;21.05;61.31;101345.91;5055119;28;19932;-59
2023/07/22 10:57:51;;;;;;;;;;;;;;;21.21;62.51;101344.03;5061465;28;20042;-59
2023/07/22 11:00:22;;;;;;;;;;;;;;;21.44;61.50;101351.72;5055074;28;19927;-60
2023/07/22 11:03:08;;;;;;;;;;;;;;;21.55;61.03;101351.63;5060043;28;20327;-58
2023/07/22 11:05:50;;;;;;;;;;;;;;;21.64;61.21;101330.59;5055245;28;19917;-59
2023/07/22 11:08:16;;;;;;;;;;;;;;;21.87;61.04;101336.44;5058176;28;19923;-59
2023/07/22 11:10:56;;;;;;;;;;;;;;;21.83;58.66;101332.13;5060309;28;19920;-58
2023/07/22 11:13:28;;;;;;;;;;;;;;;21.87;59.00;101328.59;5058885;28;19963;-59
2023/07/22 11:15:57;;;;;;;;;;;;;;;21.58;57.06;101343.72;5058335;28;19916;-58
2023/07/22 11:18:22;;;;;;;;;;;;;;;21.54;58.25;101331.59;5062633;28;19961;-57
2023/07/22 11:20:52;;;;;;;;;;;;;;;21.50;56.27;101319.41;5059389;28;19921;-59
2023/07/22 11:23:17;;;;;;;;;;;;;;;21.46;57.36;101317.69;5057878;28;19988;-58
2023/07/22 11:25:43;;;;;;;;;;;;;;;21.44;59.03;101325.56;5043454;28;19929;-58
2023/07/22 11:28:08;;;;;;;;;;;;;;;21.53;56.49;101322.84;5056497;28;19920;-58
2023/07/22 11:30:34;;;;;;;;;;;;;;;21.42;55.43;101315.13;5057065;28;20469;-58
2023/07/22 11:32:59;;;;;;;;;;;;;;;21.57;57.29;101316.69;5061248;28;19920;-59
2023/07/22 11:35:27;;;;;;;;;;;;;;;21.62;54.33;101314.91;5061889;28;19965;-59
2023/07/22 11:38:00;;;;;;;;;;;;;;;21.73;54.81;101317.41;5056504;28;19933;-61
2023/07/22 11:40:32;;;;;;;;;;;;;;;21.82;52.71;101317.31;5055608;28;19920;-60
2023/07/22 11:42:57;;;;;;;;;;;;;;;21.89;55.35;101324.19;5061547;28;19925;-59
2023/07/22 11:45:23;;;;;;;;;;;;;;;21.86;53.99;101319.00;5060621;28;19920;-61
2023/07/22 11:47:48;;;;;;;;;;;;;;;21.86;53.87;101303.31;5059584;28;19970;-59
2023/07/22 11:50:13;;;;;;;;;;;;;;;22.03;54.38;101310.09;5055126;28;19968;-59
2023/07/22 11:52:39;;;;;;;;;;;;;;;22.23;53.95;101304.63;5056971;28;20033;-60
2023/07/22 11:55:04;;;;;;;;;;;;;;;22.48;53.43;101303.41;5033954;27;19932;-60
2023/07/22 11:57:30;;;;;;;;;;;;;;;22.78;53.10;101304.72;5059105;28;19921;-60
2023/07/22 11:59:56;;;;;;;;;;;;;;;22.92;51.11;101305.38;5056579;28;20686;-60
2023/07/22 12:02:25;;;;;;;;;;;;;;;23.10;52.00;101300.75;5061779;28;20247;-60
2023/07/22 12:04:51;;;;;;;;;;;;;;;22.99;49.69;101314.03;5056317;28;19920;-60
2023/07/22 12:07:27;;;;;;;;;;;;;;;22.89;51.52;101292.34;5062624;28;19985;-61
2023/07/22 12:09:53;;;;;;;;;;;;;;;22.79;49.97;101284.59;5063557;28;19924;-60
2023/07/22 12:12:19;;;;;;;;;;;;;;;22.70;51.11;101289.13;5067215;28;19965;-57
2023/07/22 12:14:44;;;;;;;;;;;;;;;22.59;50.36;101300.66;5066729;28;19916;-61
2023/07/22 12:17:09;;;;;;;;;;;;;;;22.58;52.06;101293.69;5047342;28;19936;-61
2023/07/22 12:19:34;;;;;;;;;;;;;;;22.59;52.36;101293.66;5065941;28;20366;-60
2023/07/22 12:22:00;;;;;;;;;;;;;;;22.51;50.35;101292.91;5065067;28;19923;-59
2023/07/22 12:24:26;;;;;;;;;;;;;;;22.52;51.80;101285.91;5067157;28;19927;-60
2023/07/22 12:26:51;;;;;;;;;;;;;;;22.53;51.30;101287.63;5055308;28;20460;-61